Time;durP1;ratioP1;P1;durP2;ratioP2;P2;SDS_P1;SDS_P2;PMS_P1;PMS_P2;Temp;Humidity;BMP_temperature;BMP_pressure;BME280_temperature;BME280_humidity;BME280_pressure;Samples;Min_cycle;Max_cycle;Signal;HPM_P1;HPM_P2
2021/12/08 00:00:39;;;;;;;0.30;0.20;;;1.90;99.90;;;;;;5114246;28;20521;-87
2021/12/08 00:03:09;;;;;;;0.30;0.30;;;1.90;99.90;;;;;;5114372;28;20435;-86
2021/12/08 00:05:36;;;;;;;0.43;0.43;;;1.90;99.90;;;;;;5114195;28;20442;-86
2021/12/08 00:08:05;;;;;;;0.30;0.30;;;1.90;99.90;;;;;;5113879;28;20447;-86
2021/12/08 00:13:24;;;;;;;0.30;0.30;;;1.80;99.90;;;;;;5102775;28;20481;-86
2021/12/08 00:15:53;;;;;;;0.40;0.40;;;1.70;99.90;;;;;;5115020;28;20434;-86
2021/12/08 00:18:24;;;;;;;0.30;0.20;;;1.70;99.90;;;;;;5114046;28;20439;-86
2021/12/08 00:20:52;;;;;;;0.30;0.30;;;1.70;99.90;;;;;;5114134;28;20831;-86
2021/12/08 00:23:20;;;;;;;0.30;0.30;;;1.80;99.90;;;;;;5114156;28;20518;-85
2021/12/08 00:25:48;;;;;;;0.40;0.40;;;1.80;99.90;;;;;;5114264;28;20442;-86
2021/12/08 00:28:15;;;;;;;0.30;0.30;;;1.80;99.90;;;;;;5113640;28;20443;-86
2021/12/08 00:30:45;;;;;;;0.30;0.30;;;1.80;99.90;;;;;;5113868;28;20490;-87
2021/12/08 00:33:12;;;;;;;0.30;0.20;;;1.80;99.90;;;;;;5114045;28;20447;-85
2021/12/08 00:35:40;;;;;;;0.40;0.40;;;1.80;99.90;;;;;;5113953;28;20447;-86
2021/12/08 00:38:08;;;;;;;0.30;0.20;;;1.70;99.90;;;;;;5113846;28;20452;-86
2021/12/08 00:40:35;;;;;;;0.67;0.67;;;1.70;99.90;;;;;;5113885;28;20519;-87
2021/12/08 00:43:03;;;;;;;0.30;0.30;;;1.50;99.90;;;;;;5113604;28;20451;-87
2021/12/08 00:45:30;;;;;;;0.30;0.30;;;1.40;99.90;;;;;;5113535;28;20453;-86
2021/12/08 00:47:59;;;;;;;0.30;0.20;;;1.40;99.90;;;;;;5113876;28;20446;-86
2021/12/08 00:50:29;;;;;;;0.30;0.20;;;1.40;99.90;;;;;;5113783;28;20836;-86
2021/12/08 00:52:57;;;;;;;0.30;0.30;;;1.40;99.90;;;;;;5113732;28;20525;-86
2021/12/08 00:55:24;;;;;;;0.30;0.30;;;1.40;99.90;;;;;;5113923;28;20942;-88
2021/12/08 00:57:51;;;;;;;0.30;0.30;;;1.40;99.90;;;;;;5113995;28;20442;-88
2021/12/08 01:00:22;;;;;;;0.40;0.40;;;1.40;99.90;;;;;;5113910;28;20455;-88
2021/12/08 01:02:49;;;;;;;0.30;0.20;;;1.40;99.90;;;;;;5114138;28;20431;-88
2021/12/08 01:05:21;;;;;;;0.30;0.30;;;1.40;99.90;;;;;;5114062;28;20793;-88
2021/12/08 01:07:49;;;;;;;0.30;0.30;;;1.40;99.90;;;;;;5114070;28;20798;-88
2021/12/08 01:10:20;;;;;;;0.30;0.30;;;1.40;99.90;;;;;;5117518;28;20513;-89
2021/12/08 01:12:47;;;;;;;0.30;0.30;;;1.40;99.90;;;;;;5118377;28;20423;-89
2021/12/08 01:15:15;;;;;;;0.30;0.20;;;1.40;99.90;;;;;;5118000;28;20443;-86
2021/12/08 01:17:42;;;;;;;0.30;0.30;;;1.40;99.90;;;;;;5118029;28;20829;-86
2021/12/08 01:20:12;;;;;;;0.60;0.47;;;1.40;99.90;;;;;;5117664;28;20459;-85
2021/12/08 01:22:41;;;;;;;0.40;0.37;;;1.40;99.90;;;;;;5117701;27;20902;-86
2021/12/08 01:25:08;;;;;;;0.67;0.40;;;1.40;99.90;;;;;;5117914;27;20450;-85
2021/12/08 01:27:36;;;;;;;0.30;0.20;;;1.50;99.90;;;;;;5117494;27;20489;-85
2021/12/08 01:30:04;;;;;;;0.40;0.40;;;1.50;99.90;;;;;;5117119;28;20478;-84
2021/12/08 01:32:31;;;;;;;0.30;0.20;;;1.40;99.90;;;;;;5117157;28;20450;-84
2021/12/08 01:34:59;;;;;;;0.50;0.50;;;1.40;99.90;;;;;;5117541;28;20443;-84
2021/12/08 01:37:26;;;;;;;0.30;0.30;;;1.30;99.90;;;;;;5117184;28;20427;-84
2021/12/08 01:39:54;;;;;;;0.30;0.20;;;1.30;99.90;;;;;;5116721;28;20442;-84
2021/12/08 01:42:29;;;;;;;0.30;0.30;;;1.30;99.90;;;;;;5117415;28;20476;-85
2021/12/08 01:47:40;;;;;;;0.30;0.30;;;1.30;99.90;;;;;;5117251;28;20767;-88
2021/12/08 01:50:10;;;;;;;0.30;0.30;;;1.30;99.90;;;;;;5117051;28;20493;-88
2021/12/08 01:52:37;;;;;;;0.30;0.30;;;1.30;99.90;;;;;;5117416;28;20447;-88
2021/12/08 01:55:09;;;;;;;0.30;0.30;;;1.30;99.90;;;;;;5117360;28;20447;-88
2021/12/08 01:57:36;;;;;;;0.30;0.20;;;1.30;99.90;;;;;;5117310;27;20427;-89
2021/12/08 02:00:08;;;;;;;0.30;0.20;;;1.40;99.90;;;;;;5116801;28;20458;-89
2021/12/08 02:02:35;;;;;;;0.30;0.30;;;1.40;99.90;;;;;;5117470;27;20431;-89
2021/12/08 02:05:02;;;;;;;0.30;0.20;;;1.40;99.90;;;;;;5118312;28;20546;-88
2021/12/08 02:07:30;;;;;;;0.30;0.20;;;1.40;99.90;;;;;;5122760;28;20453;-89
2021/12/08 02:09:56;;;;;;;0.30;0.20;;;1.40;99.90;;;;;;5120217;28;20494;-89
2021/12/08 02:12:25;;;;;;;0.30;0.30;;;1.40;99.90;;;;;;5117309;28;20447;-89
2021/12/08 02:14:52;;;;;;;0.30;0.20;;;1.40;99.90;;;;;;5117123;28;20449;-89
2021/12/08 02:17:19;;;;;;;0.30;0.20;;;1.40;99.90;;;;;;5116770;28;20550;-89
2021/12/08 02:19:46;;;;;;;0.30;0.20;;;1.40;99.90;;;;;;5116311;28;20450;-89
2021/12/08 02:22:14;;;;;;;0.30;0.30;;;1.40;99.90;;;;;;5116768;28;20451;-89
2021/12/08 02:24:41;;;;;;;0.30;0.30;;;1.40;99.90;;;;;;5117082;28;20450;-89
2021/12/08 02:27:07;;;;;;;0.40;0.40;;;1.50;99.90;;;;;;5116498;28;20427;-89
2021/12/08 02:29:39;;;;;;;0.30;0.30;;;1.50;99.90;;;;;;5117117;28;20459;-89
2021/12/08 02:32:13;;;;;;;0.30;0.30;;;1.50;99.90;;;;;;5116087;28;20961;-89
2021/12/08 02:48:22;;;;;;;1.27;0.80;;;1.60;99.90;;;;;;5084739;28;20434;-89
2021/12/08 02:50:49;;;;;;;0.30;0.20;;;1.60;99.90;;;;;;5115760;28;20475;-88
2021/12/08 02:53:17;;;;;;;0.30;0.30;;;1.70;99.90;;;;;;5116051;28;20451;-89
2021/12/08 02:55:46;;;;;;;0.30;0.30;;;1.70;99.90;;;;;;5115949;28;20427;-89
2021/12/08 02:58:13;;;;;;;0.30;0.30;;;1.70;99.90;;;;;;5115898;28;20961;-89
2021/12/08 03:00:43;;;;;;;0.50;0.50;;;1.80;99.90;;;;;;5116010;28;20493;-89
2021/12/08 03:03:10;;;;;;;0.30;0.30;;;1.80;99.90;;;;;;5115882;28;20436;-89
2021/12/08 03:05:37;;;;;;;0.40;0.40;;;1.80;99.90;;;;;;5115818;28;20432;-89
2021/12/08 03:08:06;;;;;;;0.30;0.20;;;1.80;99.90;;;;;;5115981;28;20442;-89
2021/12/08 03:10:37;;;;;;;0.30;0.30;;;1.80;99.90;;;;;;5115444;28;20832;-89
2021/12/08 03:13:04;;;;;;;0.30;0.20;;;1.90;99.90;;;;;;5116572;27;20447;-89
2021/12/08 03:15:31;;;;;;;0.30;0.30;;;1.90;99.90;;;;;;5116470;28;20451;-89
2021/12/08 03:17:58;;;;;;;0.30;0.20;;;1.90;99.90;;;;;;5117872;28;20435;-88
2021/12/08 03:20:38;;;;;;;0.30;0.30;;;1.90;99.90;;;;;;5123697;28;20533;-89
2021/12/08 03:23:05;;;;;;;0.30;0.20;;;1.90;99.90;;;;;;5124777;28;20459;-88
2021/12/08 03:25:38;;;;;;;0.30;0.30;;;2.00;99.90;;;;;;5118523;28;20439;-89
2021/12/08 03:28:12;;;;;;;0.30;0.20;;;2.00;99.90;;;;;;5115203;28;20440;-89
2021/12/08 03:30:40;;;;;;;0.30;0.20;;;2.00;99.90;;;;;;5114689;28;20509;-89
2021/12/08 03:33:09;;;;;;;0.33;0.33;;;2.00;99.90;;;;;;5114744;28;20499;-88
2021/12/08 03:35:36;;;;;;;0.30;0.30;;;2.10;99.90;;;;;;5115084;28;20450;-88
2021/12/08 03:38:03;;;;;;;0.30;0.30;;;2.10;99.90;;;;;;5115182;28;20443;-89
2021/12/08 03:40:32;;;;;;;0.30;0.30;;;2.20;99.90;;;;;;5114840;28;20831;-88
2021/12/08 03:43:00;;;;;;;0.50;0.37;;;2.20;99.90;;;;;;5115019;28;20834;-88
2021/12/08 03:45:32;;;;;;;0.30;0.30;;;2.20;99.90;;;;;;5114860;28;20451;-88
2021/12/08 03:48:03;;;;;;;0.30;0.30;;;2.30;99.90;;;;;;5115153;28;20446;-88
2021/12/08 03:50:32;;;;;;;0.30;0.30;;;2.30;99.90;;;;;;5114783;28;20574;-88
2021/12/08 03:52:59;;;;;;;0.30;0.30;;;2.30;99.90;;;;;;5114864;28;20435;-88
2021/12/08 03:55:26;;;;;;;0.30;0.20;;;2.40;99.90;;;;;;5114910;28;20447;-86
2021/12/08 03:57:53;;;;;;;0.40;0.40;;;2.40;99.90;;;;;;5114736;28;20454;-85
2021/12/08 04:00:26;;;;;;;0.30;0.23;;;2.50;99.90;;;;;;5115162;28;20980;-87
2021/12/08 04:02:53;;;;;;;0.30;0.20;;;2.40;99.90;;;;;;5114741;28;20434;-86
2021/12/08 04:05:31;;;;;;;0.30;0.20;;;2.40;99.90;;;;;;5114610;28;20509;-86
2021/12/08 04:08:03;;;;;;;0.30;0.20;;;2.50;99.90;;;;;;5114282;28;20435;-87
2021/12/08 04:10:31;;;;;;;0.30;0.30;;;2.50;99.90;;;;;;5114083;28;20562;-86
2021/12/08 04:12:58;;;;;;;0.30;0.20;;;2.50;99.90;;;;;;5114229;28;20436;-86
2021/12/08 04:15:28;;;;;;;0.30;0.30;;;2.50;99.90;;;;;;5114148;28;20438;-87
2021/12/08 04:17:56;;;;;;;0.57;0.57;;;2.50;99.90;;;;;;5114483;28;20443;-87
2021/12/08 04:20:27;;;;;;;0.33;0.33;;;2.50;99.90;;;;;;5114592;28;21001;-88
2021/12/08 04:22:56;;;;;;;0.30;0.30;;;2.60;99.90;;;;;;5114587;28;20439;-89
2021/12/08 04:25:26;;;;;;;0.50;0.30;;;2.50;99.90;;;;;;5114856;28;20434;-89
2021/12/08 04:27:55;;;;;;;0.30;0.30;;;2.60;99.90;;;;;;5114703;28;20927;-89
2021/12/08 04:30:28;;;;;;;0.30;0.20;;;2.60;99.90;;;;;;5114415;28;20459;-89
2021/12/08 04:32:55;;;;;;;0.30;0.30;;;2.60;99.90;;;;;;5115072;28;20443;-89
2021/12/08 04:35:22;;;;;;;0.30;0.30;;;2.60;99.90;;;;;;5115422;28;20473;-88
2021/12/08 04:37:53;;;;;;;0.80;0.80;;;2.60;99.90;;;;;;5118364;28;20502;-88
2021/12/08 04:40:31;;;;;;;0.30;0.30;;;2.70;99.90;;;;;;5114985;28;20474;-90
2021/12/08 04:43:08;;;;;;;0.43;0.43;;;2.70;99.90;;;;;;5116972;28;20454;-89
2021/12/08 04:45:54;;;;;;;0.70;0.70;;;2.60;99.90;;;;;;5119434;28;20447;-90
2021/12/08 04:48:36;;;;;;;0.30;0.30;;;2.70;99.90;;;;;;5119096;28;20435;-90
2021/12/08 05:00:16;;;;;;;0.40;0.40;;;2.70;99.90;;;;;;5113335;28;20468;-89
2021/12/08 05:02:46;;;;;;;0.30;0.23;;;2.70;99.90;;;;;;5118018;28;20549;-88
2021/12/08 05:05:24;;;;;;;0.30;0.30;;;2.70;99.90;;;;;;5118885;28;20505;-88
2021/12/08 05:07:55;;;;;;;0.30;0.30;;;2.70;99.90;;;;;;5118577;28;20786;-88
2021/12/08 05:10:29;;;;;;;0.30;0.30;;;2.70;99.90;;;;;;5118123;28;20475;-88
2021/12/08 05:12:58;;;;;;;0.30;0.30;;;2.70;99.90;;;;;;5117879;28;20455;-88
2021/12/08 05:15:27;;;;;;;0.30;0.30;;;2.80;99.90;;;;;;5118619;28;20443;-89
2021/12/08 05:18:00;;;;;;;0.30;0.30;;;2.70;99.90;;;;;;5117883;28;20412;-88
2021/12/08 05:20:33;;;;;;;0.30;0.30;;;2.70;99.90;;;;;;5117853;28;21003;-88
2021/12/08 05:23:04;;;;;;;0.50;0.50;;;2.80;99.90;;;;;;5118268;28;20439;-88
2021/12/08 05:25:35;;;;;;;0.30;0.20;;;2.70;99.90;;;;;;5118018;28;20435;-88
2021/12/08 05:28:06;;;;;;;0.30;0.30;;;2.70;99.90;;;;;;5117756;28;20410;-88
2021/12/08 05:30:40;;;;;;;0.30;0.30;;;2.70;99.90;;;;;;5117673;28;20953;-88
2021/12/08 05:33:10;;;;;;;0.30;0.20;;;2.80;99.90;;;;;;5117810;28;20969;-88
2021/12/08 05:35:37;;;;;;;0.30;0.20;;;2.70;99.90;;;;;;5117814;28;20450;-88
2021/12/08 05:38:05;;;;;;;0.30;0.30;;;2.80;99.90;;;;;;5117671;27;20431;-88
2021/12/08 05:40:36;;;;;;;0.30;0.30;;;2.70;99.90;;;;;;5117321;28;20545;-89
2021/12/08 05:43:04;;;;;;;0.30;0.27;;;2.80;99.90;;;;;;5117701;27;20796;-88
2021/12/08 05:45:31;;;;;;;0.30;0.27;;;2.80;99.90;;;;;;5117998;28;20435;-88
2021/12/08 05:47:58;;;;;;;0.30;0.30;;;2.90;99.90;;;;;;5117379;27;20792;-88
2021/12/08 05:50:33;;;;;;;0.30;0.30;;;2.80;99.90;;;;;;5117428;28;20474;-88
2021/12/08 05:53:00;;;;;;;0.30;0.20;;;2.90;99.90;;;;;;5117021;28;20503;-87
2021/12/08 05:55:27;;;;;;;0.30;0.30;;;2.90;99.90;;;;;;5116534;28;20438;-88
2021/12/08 05:57:54;;;;;;;0.30;0.20;;;2.80;99.90;;;;;;5117268;28;20963;-87
2021/12/08 06:00:25;;;;;;;0.30;0.20;;;2.80;99.90;;;;;;5116823;28;21016;-87
2021/12/08 06:02:54;;;;;;;0.30;0.30;;;2.80;99.90;;;;;;5117333;28;20778;-88
2021/12/08 06:05:23;;;;;;;0.30;0.30;;;2.80;99.90;;;;;;5116901;28;20432;-88
2021/12/08 06:07:51;;;;;;;0.30;0.30;;;2.80;99.90;;;;;;5117091;28;20452;-87
2021/12/08 06:10:23;;;;;;;0.30;0.30;;;2.80;99.90;;;;;;5116491;28;20487;-87
2021/12/08 06:12:50;;;;;;;0.30;0.30;;;2.80;99.90;;;;;;5117298;28;20471;-88
2021/12/08 06:15:18;;;;;;;0.30;0.23;;;2.90;99.90;;;;;;5116799;28;20438;-88
2021/12/08 06:17:45;;;;;;;0.30;0.20;;;2.90;99.90;;;;;;5116641;28;20462;-88
2021/12/08 06:20:15;;;;;;;0.30;0.30;;;2.80;99.90;;;;;;5116574;28;20447;-87
2021/12/08 06:22:42;;;;;;;0.50;0.50;;;2.80;99.90;;;;;;5116633;28;20443;-88
2021/12/08 06:25:14;;;;;;;0.30;0.30;;;2.80;99.90;;;;;;5116371;28;20435;-88
2021/12/08 06:27:41;;;;;;;0.30;0.30;;;2.80;99.90;;;;;;5116309;28;20408;-87
2021/12/08 06:30:11;;;;;;;0.30;0.20;;;2.80;99.90;;;;;;5117272;28;20455;-86
2021/12/08 06:32:38;;;;;;;0.30;0.20;;;2.90;99.90;;;;;;5116242;28;20467;-87
2021/12/08 06:35:09;;;;;;;0.73;0.60;;;2.80;99.90;;;;;;5116368;27;20458;-87
2021/12/08 06:37:39;;;;;;;0.30;0.30;;;2.90;99.90;;;;;;5116472;27;20415;-87
2021/12/08 06:40:13;;;;;;;0.30;0.30;;;2.80;99.90;;;;;;5116499;28;20479;-86
2021/12/08 06:42:43;;;;;;;0.30;0.30;;;2.80;99.90;;;;;;5115813;28;20435;-86
2021/12/08 06:45:15;;;;;;;0.30;0.30;;;2.90;99.90;;;;;;5115853;27;20419;-86
2021/12/08 06:47:43;;;;;;;0.30;0.30;;;2.90;99.90;;;;;;5115988;28;20904;-86
2021/12/08 06:50:15;;;;;;;0.30;0.20;;;2.90;99.90;;;;;;5115565;28;20463;-86
2021/12/08 06:52:42;;;;;;;1.27;0.70;;;2.90;99.90;;;;;;5115840;27;20459;-86
2021/12/08 06:55:12;;;;;;;0.30;0.30;;;2.90;99.90;;;;;;5115783;28;20789;-86
2021/12/08 06:57:43;;;;;;;0.30;0.30;;;3.00;99.90;;;;;;5115998;28;20447;-86
2021/12/08 07:00:20;;;;;;;0.30;0.20;;;2.90;99.90;;;;;;5115708;28;20460;-86
2021/12/08 07:02:58;;;;;;;0.40;0.40;;;3.00;99.90;;;;;;5115662;28;20505;-86
2021/12/08 07:05:42;;;;;;;0.40;0.30;;;2.90;99.90;;;;;;5115474;28;20440;-85
2021/12/08 07:08:10;;;;;;;0.30;0.20;;;3.00;99.90;;;;;;5118516;28;20488;-86
2021/12/08 07:10:43;;;;;;;0.30;0.30;;;3.00;99.90;;;;;;5115347;28;20486;-86
2021/12/08 07:13:15;;;;;;;0.50;0.40;;;3.00;99.90;;;;;;5115790;28;20475;-86
2021/12/08 07:15:46;;;;;;;0.30;0.30;;;2.90;99.90;;;;;;5115575;28;20435;-86
2021/12/08 07:18:16;;;;;;;0.30;0.30;;;2.90;99.90;;;;;;5115044;28;20431;-85
2021/12/08 07:20:49;;;;;;;0.30;0.30;;;2.80;99.90;;;;;;5115227;28;20562;-86
2021/12/08 07:23:20;;;;;;;0.30;0.20;;;2.80;99.90;;;;;;5115187;28;20419;-85
2021/12/08 07:25:50;;;;;;;0.30;0.20;;;2.80;99.90;;;;;;5115424;28;20447;-86
2021/12/08 07:28:19;;;;;;;0.30;0.20;;;2.90;99.90;;;;;;5115591;28;20533;-86
2021/12/08 07:30:51;;;;;;;0.40;0.37;;;2.90;99.90;;;;;;5114658;28;20973;-86
2021/12/08 07:33:18;;;;;;;0.60;0.60;;;2.90;99.90;;;;;;5115377;28;20525;-85
2021/12/08 07:35:48;;;;;;;0.30;0.30;;;2.80;99.90;;;;;;5114986;28;20447;-86
2021/12/08 07:38:18;;;;;;;0.50;0.50;;;2.90;99.90;;;;;;5115010;28;20428;-86
2021/12/08 07:40:50;;;;;;;0.30;0.20;;;2.90;99.90;;;;;;5115594;28;20807;-86
2021/12/08 07:43:22;;;;;;;0.47;0.47;;;2.90;99.90;;;;;;5114953;28;20434;-86
2021/12/08 07:45:53;;;;;;;0.30;0.20;;;2.90;99.90;;;;;;5115018;28;20407;-86
2021/12/08 07:48:24;;;;;;;0.30;0.30;;;2.90;99.90;;;;;;5114426;28;20938;-86
2021/12/08 07:50:54;;;;;;;0.30;0.30;;;2.90;99.90;;;;;;5114686;28;20532;-87
2021/12/08 07:53:24;;;;;;;0.30;0.30;;;3.00;99.90;;;;;;5114579;28;20482;-86
2021/12/08 07:55:58;;;;;;;0.30;0.30;;;2.90;99.90;;;;;;5115992;28;20435;-86
2021/12/08 07:58:27;;;;;;;0.30;0.27;;;2.90;99.90;;;;;;5114676;28;20436;-86
2021/12/08 08:00:57;;;;;;;0.50;0.40;;;2.90;99.90;;;;;;5114701;28;20466;-87
2021/12/08 08:03:25;;;;;;;0.30;0.30;;;2.90;99.90;;;;;;5115153;28;20902;-86
2021/12/08 08:05:54;;;;;;;0.30;0.30;;;2.90;99.90;;;;;;5114930;28;20467;-86
2021/12/08 08:08:25;;;;;;;0.30;0.20;;;3.00;99.90;;;;;;5114944;28;20431;-86
2021/12/08 08:10:54;;;;;;;0.30;0.30;;;3.00;99.90;;;;;;5115475;28;20479;-87
2021/12/08 08:13:23;;;;;;;0.30;0.20;;;3.00;99.90;;;;;;5119784;28;20558;-87
2021/12/08 08:15:53;;;;;;;0.30;0.30;;;3.00;99.90;;;;;;5119042;28;20427;-87
2021/12/08 08:18:26;;;;;;;0.30;0.30;;;3.00;99.90;;;;;;5124679;28;20440;-87
2021/12/08 08:20:55;;;;;;;0.30;0.30;;;3.00;99.90;;;;;;5114740;28;20978;-87
2021/12/08 08:23:26;;;;;;;0.30;0.20;;;3.00;99.90;;;;;;5114614;28;20450;-83
2021/12/08 08:25:55;;;;;;;1.17;0.40;;;3.00;99.90;;;;;;5114153;28;20432;-85
2021/12/08 08:28:22;;;;;;;0.30;0.30;;;3.00;99.90;;;;;;5114169;28;20443;-85
2021/12/08 08:30:53;;;;;;;0.30;0.20;;;2.90;99.90;;;;;;5114181;28;20459;-85
2021/12/08 08:33:21;;;;;;;0.40;0.40;;;3.00;99.90;;;;;;5114061;28;20467;-85
2021/12/08 08:35:51;;;;;;;0.30;0.20;;;3.00;99.90;;;;;;5114065;28;20474;-85
2021/12/08 08:38:20;;;;;;;0.30;0.30;;;3.00;99.90;;;;;;5114259;28;20455;-85
2021/12/08 08:40:51;;;;;;;0.30;0.30;;;3.00;99.90;;;;;;5114039;28;20459;-85
2021/12/08 08:43:19;;;;;;;1.13;1.13;;;3.10;99.90;;;;;;5114123;28;20430;-85
2021/12/08 08:45:51;;;;;;;0.30;0.20;;;3.10;99.90;;;;;;5114037;28;20442;-85
2021/12/08 08:48:24;;;;;;;0.30;0.30;;;3.10;99.90;;;;;;5114125;28;20517;-85
2021/12/08 08:50:54;;;;;;;0.97;0.93;;;3.10;99.90;;;;;;5114169;28;20459;-85
2021/12/08 08:53:25;;;;;;;0.30;0.30;;;3.10;99.90;;;;;;5114055;28;20471;-85
2021/12/08 08:55:55;;;;;;;0.40;0.40;;;3.10;99.90;;;;;;5113958;28;20434;-85
2021/12/08 08:58:25;;;;;;;0.53;0.53;;;3.10;99.90;;;;;;5114118;28;20812;-85
2021/12/08 09:00:55;;;;;;;0.30;0.20;;;3.10;99.90;;;;;;5113799;28;20793;-85
2021/12/08 09:03:26;;;;;;;0.30;0.27;;;3.10;99.90;;;;;;5113583;28;20442;-85
2021/12/08 09:05:56;;;;;;;1.23;1.23;;;3.20;99.90;;;;;;5113817;28;20427;-85
2021/12/08 09:08:25;;;;;;;0.30;0.30;;;3.10;99.90;;;;;;5113500;28;20454;-84
2021/12/08 09:10:57;;;;;;;0.40;0.30;;;3.20;99.90;;;;;;5113768;28;20537;-85
2021/12/08 09:13:28;;;;;;;0.73;0.63;;;3.20;99.90;;;;;;5113716;28;20857;-85
2021/12/08 09:15:58;;;;;;;0.30;0.20;;;3.20;99.90;;;;;;5113359;28;20914;-84
2021/12/08 09:18:34;;;;;;;0.30;0.30;;;3.20;99.90;;;;;;5113747;28;20431;-85
2021/12/08 09:21:13;;;;;;;0.30;0.20;;;3.30;99.90;;;;;;5113296;28;20470;-85
2021/12/08 09:23:42;;;;;;;0.30;0.20;;;3.30;99.90;;;;;;5113609;28;20428;-85
2021/12/08 09:26:14;;;;;;;0.40;0.30;;;3.30;99.90;;;;;;5113642;28;20472;-86
2021/12/08 09:28:44;;;;;;;0.30;0.20;;;3.30;99.90;;;;;;5113700;28;20427;-85
2021/12/08 09:31:16;;;;;;;0.30;0.30;;;3.30;99.90;;;;;;5116555;28;21005;-85
2021/12/08 09:33:51;;;;;;;1.13;0.50;;;3.30;99.90;;;;;;5117252;28;20466;-87
2021/12/08 09:36:22;;;;;;;0.30;0.20;;;3.40;99.90;;;;;;5117743;28;20431;-86
2021/12/08 09:38:53;;;;;;;0.30;0.20;;;3.40;99.90;;;;;;5117650;28;20796;-86
2021/12/08 09:41:25;;;;;;;0.30;0.30;;;3.40;99.90;;;;;;5118537;28;20462;-87
2021/12/08 09:43:56;;;;;;;0.30;0.30;;;3.40;99.90;;;;;;5118603;27;20958;-86
2021/12/08 09:46:26;;;;;;;0.30;0.30;;;3.40;99.90;;;;;;5117281;28;20763;-87
2021/12/08 09:48:56;;;;;;;0.30;0.20;;;3.50;99.90;;;;;;5116898;28;20513;-86
2021/12/08 09:51:26;;;;;;;0.30;0.30;;;3.50;99.90;;;;;;5116686;28;20454;-86
2021/12/08 09:53:53;;;;;;;0.30;0.30;;;3.50;99.90;;;;;;5116828;27;20463;-86
2021/12/08 09:56:21;;;;;;;0.30;0.30;;;3.50;99.90;;;;;;5116735;28;20843;-87
2021/12/08 09:58:48;;;;;;;0.30;0.30;;;3.50;99.90;;;;;;5116688;28;20443;-86
2021/12/08 10:01:19;;;;;;;0.30;0.27;;;3.60;99.90;;;;;;5116702;28;20841;-87
2021/12/08 10:03:46;;;;;;;0.30;0.27;;;3.60;99.90;;;;;;5117168;28;20432;-86
2021/12/08 10:06:16;;;;;;;0.40;0.30;;;3.60;99.90;;;;;;5116729;28;20438;-86
2021/12/08 10:08:44;;;;;;;0.30;0.20;;;3.60;99.90;;;;;;5116279;28;21009;-87
2021/12/08 10:11:11;;;;;;;0.30;0.20;;;3.70;99.90;;;;;;5116585;28;20466;-87
2021/12/08 10:13:40;;;;;;;0.30;0.20;;;3.60;99.90;;;;;;5116582;28;20474;-86
2021/12/08 10:16:07;;;;;;;0.30;0.20;;;3.60;99.90;;;;;;5116442;28;20447;-87
2021/12/08 10:18:35;;;;;;;0.30;0.30;;;3.60;99.90;;;;;;5116613;28;20438;-86
2021/12/08 10:21:03;;;;;;;0.30;0.30;;;3.60;99.90;;;;;;5116067;28;20466;-87
2021/12/08 10:23:33;;;;;;;0.60;0.47;;;3.60;99.90;;;;;;5116479;27;20423;-87
2021/12/08 10:26:02;;;;;;;0.30;0.20;;;3.60;99.90;;;;;;5116344;28;20484;-87
2021/12/08 10:28:33;;;;;;;0.30;0.30;;;3.70;99.90;;;;;;5116350;28;20851;-87
2021/12/08 10:31:05;;;;;;;0.30;0.30;;;3.70;99.90;;;;;;5116662;27;20972;-86
2021/12/08 10:33:50;;;;;;;0.30;0.20;;;3.80;99.90;;;;;;5116404;28;20471;-87
2021/12/08 10:36:43;;;;;;;0.30;0.30;;;3.80;99.90;;;;;;5116681;27;20427;-87
2021/12/08 10:39:15;;;;;;;0.30;0.20;;;3.80;99.90;;;;;;5116228;28;20454;-87
2021/12/08 10:41:48;;;;;;;0.93;0.57;;;3.80;99.90;;;;;;5115790;28;20481;-87
2021/12/08 10:44:16;;;;;;;0.30;0.30;;;3.80;99.90;;;;;;5116087;28;20798;-86
2021/12/08 10:46:43;;;;;;;0.30;0.20;;;3.80;99.90;;;;;;5115973;28;20768;-86
2021/12/08 10:49:19;;;;;;;0.30;0.30;;;3.80;99.90;;;;;;5116543;28;20427;-87
2021/12/08 10:54:35;;;;;;;0.30;0.20;;;3.80;99.90;;;;;;5116166;28;20484;-87
2021/12/08 10:57:19;;;;;;;0.30;0.20;;;3.90;99.90;;;;;;5115755;28;20423;-87
2021/12/08 10:59:56;;;;;;;0.30;0.20;;;3.90;99.90;;;;;;5115753;28;20431;-86
2021/12/08 11:02:54;;;;;;;0.40;0.40;;;4.00;99.90;;;;;;5115661;28;20434;-87
2021/12/08 11:05:42;;;;;;;1.90;0.43;;;4.00;99.90;;;;;;5053344;28;20943;-86
2021/12/08 11:08:15;;;;;;;0.60;0.50;;;4.10;99.90;;;;;;5110798;28;20460;-87
2021/12/08 11:10:47;;;;;;;0.40;0.30;;;4.10;99.90;;;;;;5115313;28;20490;-86
2021/12/08 11:13:16;;;;;;;0.30;0.20;;;4.10;99.90;;;;;;5115225;28;20537;-87
2021/12/08 11:15:44;;;;;;;0.50;0.50;;;4.20;99.90;;;;;;5115489;28;20439;-87
2021/12/08 11:18:16;;;;;;;0.30;0.20;;;4.20;99.90;;;;;;5115573;28;20423;-87
2021/12/08 11:20:50;;;;;;;0.30;0.20;;;4.20;99.90;;;;;;5114772;28;20467;-82
2021/12/08 11:23:28;;;;;;;0.30;0.30;;;4.20;99.90;;;;;;5115104;27;20426;-85
2021/12/08 11:25:58;;;;;;;0.30;0.20;;;4.20;99.90;;;;;;5115183;28;20443;-86
2021/12/08 11:28:33;;;;;;;0.30;0.30;;;4.20;99.90;;;;;;5115284;28;20428;-86
2021/12/08 11:31:07;;;;;;;0.30;0.20;;;4.20;99.90;;;;;;5115398;28;20561;-86
2021/12/08 11:33:36;;;;;;;0.43;0.43;;;4.20;99.90;;;;;;5115531;28;20491;-86
2021/12/08 11:36:10;;;;;;;2.00;0.60;;;4.20;99.90;;;;;;5114879;28;20432;-86
2021/12/08 11:38:37;;;;;;;0.30;0.20;;;4.20;99.90;;;;;;5114922;28;20434;-86
2021/12/08 11:41:11;;;;;;;0.30;0.20;;;4.10;99.90;;;;;;5114922;28;20470;-86
2021/12/08 11:43:38;;;;;;;0.30;0.30;;;4.20;99.90;;;;;;5114869;28;20477;-86
2021/12/08 11:46:15;;;;;;;0.90;0.40;;;4.10;99.90;;;;;;5114787;28;20431;-86
2021/12/08 11:49:04;;;;;;;0.40;0.40;;;4.20;99.90;;;;;;5115521;28;20430;-86
2021/12/08 11:51:48;;;;;;;0.30;0.20;;;4.20;99.90;;;;;;5114243;28;20988;-86
2021/12/08 11:54:24;;;;;;;0.30;0.30;;;4.20;99.90;;;;;;5114330;28;20878;-86
2021/12/08 11:56:53;;;;;;;0.30;0.30;;;4.20;99.90;;;;;;5114474;28;20794;-86
2021/12/08 11:59:19;;;;;;;0.40;0.40;;;4.20;99.90;;;;;;5114324;28;20431;-86
2021/12/08 12:01:47;;;;;;;0.30;0.30;;;4.10;99.90;;;;;;5114040;28;21001;-86
2021/12/08 12:04:15;;;;;;;0.63;0.43;;;4.10;99.90;;;;;;5114444;28;20423;-86
2021/12/08 12:06:42;;;;;;;0.30;0.20;;;4.10;99.90;;;;;;5114122;28;20471;-86
2021/12/08 12:09:10;;;;;;;1.80;0.40;;;4.10;99.90;;;;;;5114072;28;20475;-86
2021/12/08 12:11:38;;;;;;;0.90;0.90;;;4.00;99.90;;;;;;5114076;28;20889;-86
2021/12/08 12:14:06;;;;;;;0.30;0.30;;;4.10;99.90;;;;;;5113948;28;20463;-86
2021/12/08 12:16:33;;;;;;;0.30;0.30;;;4.10;99.90;;;;;;5114241;28;20434;-85
2021/12/08 12:19:05;;;;;;;0.30;0.30;;;4.10;99.90;;;;;;5114431;28;20431;-86
2021/12/08 12:21:38;;;;;;;0.43;0.40;;;4.20;99.90;;;;;;5116281;28;20497;-85
2021/12/08 12:24:29;;;;;;;0.50;0.33;;;4.20;99.90;;;;;;5114600;28;20427;-85
2021/12/08 12:27:15;;;;;;;0.30;0.20;;;4.20;99.90;;;;;;5113788;28;20439;-86
2021/12/08 12:29:58;;;;;;;0.50;0.50;;;4.20;99.90;;;;;;5114066;28;20427;-85
2021/12/08 12:32:27;;;;;;;0.30;0.30;;;4.20;99.90;;;;;;5114175;28;20920;-86
2021/12/08 12:35:09;;;;;;;0.30;0.30;;;4.20;99.90;;;;;;5114035;28;20537;-86
2021/12/08 12:37:37;;;;;;;0.30;0.30;;;4.20;99.90;;;;;;5114026;28;20419;-86
2021/12/08 12:40:07;;;;;;;0.30;0.30;;;4.30;99.90;;;;;;5113848;28;20463;-86
2021/12/08 12:42:53;;;;;;;0.30;0.30;;;4.30;99.90;;;;;;5114376;28;20834;-84
2021/12/08 12:45:23;;;;;;;0.30;0.30;;;4.30;99.90;;;;;;5113948;28;20422;-84
2021/12/08 12:48:06;;;;;;;0.40;0.40;;;4.20;99.90;;;;;;5113922;28;20438;-84
2021/12/08 12:50:51;;;;;;;0.30;0.30;;;4.20;99.90;;;;;;5111376;28;20482;-85
2021/12/08 12:53:32;;;;;;;0.30;0.20;;;4.20;99.90;;;;;;5113674;28;20478;-84
2021/12/08 12:55:58;;;;;;;0.70;0.70;;;4.20;99.90;;;;;;5113722;28;20821;-84
2021/12/08 12:58:39;;;;;;;0.63;0.63;;;4.30;99.90;;;;;;5113332;28;20957;-84
2021/12/08 13:01:10;;;;;;;0.30;0.30;;;4.30;99.90;;;;;;5113634;28;20463;-84
2021/12/08 13:03:41;;;;;;;0.30;0.30;;;4.40;99.90;;;;;;5114678;28;20431;-85
2021/12/08 13:06:09;;;;;;;1.03;1.03;;;4.30;99.90;;;;;;5117606;28;20439;-83
2021/12/08 13:08:38;;;;;;;0.30;0.20;;;4.40;99.90;;;;;;5117019;28;20455;-83
2021/12/08 13:11:12;;;;;;;0.30;0.30;;;4.30;99.90;;;;;;5117120;28;20492;-84
2021/12/08 13:13:47;;;;;;;0.40;0.33;;;4.20;99.90;;;;;;5117080;28;20970;-84
2021/12/08 13:16:27;;;;;;;0.67;0.67;;;4.20;99.90;;;;;;5116999;28;20929;-84
2021/12/08 13:18:56;;;;;;;0.60;0.40;;;4.30;99.90;;;;;;5118164;27;20434;-84
2021/12/08 13:21:41;;;;;;;0.53;0.53;;;4.30;99.90;;;;;;5117231;28;20519;-84
2021/12/08 13:24:38;;;;;;;0.30;0.30;;;4.30;99.90;;;;;;5117277;28;20419;-79
2021/12/08 13:27:07;;;;;;;0.30;0.30;;;4.30;99.90;;;;;;5117092;28;20862;-79
2021/12/08 13:29:37;;;;;;;0.40;0.33;;;4.20;99.90;;;;;;5116819;28;20473;-84
2021/12/08 13:32:13;;;;;;;0.40;0.30;;;4.30;99.90;;;;;;5117295;28;20447;-84
2021/12/08 13:34:42;;;;;;;0.30;0.30;;;4.30;99.90;;;;;;5116596;28;20477;-84
2021/12/08 13:37:19;;;;;;;0.30;0.30;;;4.30;99.90;;;;;;5117044;28;20431;-85
2021/12/08 13:39:47;;;;;;;1.43;0.40;;;4.20;99.90;;;;;;5116713;28;20470;-84
2021/12/08 13:42:16;;;;;;;0.43;0.43;;;4.20;99.90;;;;;;5116867;28;20442;-84
2021/12/08 13:44:53;;;;;;;0.30;0.30;;;4.20;99.90;;;;;;5116838;28;20431;-84
2021/12/08 13:47:26;;;;;;;0.60;0.60;;;4.20;99.90;;;;;;5116883;27;20446;-84